Time;durP1;ratioP1;P1;durP2;ratioP2;P2;SDS_P1;SDS_P2;PMS_P1;PMS_P2;Temp;Humidity;BMP_temperature;BMP_pressure;BME280_temperature;BME280_humidity;BME280_pressure;Samples;Min_cycle;Max_cycle;Signal;HPM_P1;HPM_P2
2024/04/25 00:00:02;;;;;;;1.08;0.98;;;10.40;85.50;;;;;;4230242;28;20048;-62
2024/04/25 00:02:03;;;;;;;4.65;0.63;;;10.30;85.90;;;;;;4213644;28;20051;-63
2024/04/25 00:04:05;;;;;;;1.23;0.55;;;10.20;86.30;;;;;;4230454;28;20151;-65
2024/04/25 00:06:06;;;;;;;2.03;0.93;;;10.20;86.40;;;;;;4212974;28;20047;-64
2024/04/25 00:08:07;;;;;;;12.38;1.30;;;10.10;87.00;;;;;;4229680;28;20043;-64
2024/04/25 00:10:08;;;;;;;1.27;0.35;;;10.10;86.70;;;;;;4229778;28;20047;-65
2024/04/25 00:12:11;;;;;;;1.77;0.70;;;10.00;86.70;;;;;;4229958;28;20063;-64
2024/04/25 00:14:12;;;;;;;2.78;0.40;;;10.20;86.20;;;;;;4229937;28;20048;-64
2024/04/25 00:16:14;;;;;;;0.98;0.40;;;10.20;86.60;;;;;;4229718;28;20096;-64
2024/04/25 00:18:16;;;;;;;0.22;0.22;;;10.20;87.20;;;;;;4229987;28;20055;-64
2024/04/25 00:20:17;;;;;;;1.30;0.82;;;10.20;86.50;;;;;;4229908;28;20366;-65
2024/04/25 00:22:18;;;;;;;0.75;0.43;;;10.10;86.30;;;;;;4229871;28;20508;-64
2024/04/25 00:24:22;;;;;;;1.45;0.30;;;10.10;86.00;;;;;;4230024;28;20480;-66
2024/04/25 00:26:23;;;;;;;3.40;0.30;;;10.20;85.50;;;;;;4229637;28;20048;-64
2024/04/25 00:28:25;;;;;;;0.70;0.47;;;10.10;86.00;;;;;;4229778;28;20083;-64
2024/04/25 00:30:27;;;;;;;0.65;0.45;;;10.00;85.20;;;;;;4229794;28;20097;-64
2024/04/25 00:32:28;;;;;;;1.52;0.40;;;10.10;85.50;;;;;;4229535;28;20478;-63
2024/04/25 00:34:29;;;;;;;2.65;1.30;;;10.10;85.50;;;;;;4229808;28;20405;-64
2024/04/25 00:36:30;;;;;;;1.35;0.52;;;10.10;85.70;;;;;;4212163;28;20480;-64
2024/04/25 00:38:32;;;;;;;1.30;0.65;;;10.10;85.70;;;;;;4230401;28;20055;-64
2024/04/25 00:40:33;;;;;;;1.67;1.33;;;10.10;86.00;;;;;;4230347;28;20043;-67
2024/04/25 00:42:34;;;;;;;1.08;0.45;;;10.10;85.60;;;;;;4229013;28;20073;-64
2024/04/25 00:44:36;;;;;;;1.02;0.70;;;10.10;85.60;;;;;;4230983;28;20424;-70
2024/04/25 00:46:39;;;;;;;1.75;0.60;;;10.10;86.40;;;;;;4230601;28;20044;-65
2024/04/25 00:48:40;;;;;;;0.32;0.20;;;10.10;86.80;;;;;;4230577;28;20093;-63
2024/04/25 00:50:43;;;;;;;5.47;0.57;;;10.10;86.50;;;;;;4213012;28;20131;-65
2024/04/25 00:52:44;;;;;;;1.08;0.70;;;10.00;86.70;;;;;;4226687;28;20497;-69
2024/04/25 00:54:46;;;;;;;1.10;0.35;;;10.00;86.60;;;;;;4229852;28;20051;-63
2024/04/25 00:56:47;;;;;;;1.13;0.68;;;9.90;86.00;;;;;;4229586;28;20039;-62
2024/04/25 00:58:49;;;;;;;0.63;0.40;;;9.90;86.60;;;;;;4229643;28;20039;-65
2024/04/25 01:00:53;;;;;;;0.30;0.30;;;9.90;87.50;;;;;;4229143;28;20055;-65
2024/04/25 01:02:56;;;;;;;3.37;0.60;;;10.00;87.00;;;;;;4211150;28;20464;-65
2024/04/25 01:04:59;;;;;;;0.50;0.30;;;10.00;87.80;;;;;;4228884;28;20056;-67
2024/04/25 01:07:01;;;;;;;1.60;1.02;;;9.90;87.50;;;;;;4229128;28;20151;-65
2024/04/25 01:09:03;;;;;;;0.68;0.38;;;9.90;87.10;;;;;;4229372;28;20048;-71
2024/04/25 01:11:04;;;;;;;0.88;0.20;;;9.90;87.50;;;;;;4229166;28;20428;-65
2024/04/25 01:13:06;;;;;;;0.30;0.20;;;10.00;87.00;;;;;;4229859;28;20052;-65
2024/04/25 01:15:07;;;;;;;0.73;0.65;;;10.10;86.60;;;;;;4245868;28;20054;-63
2024/04/25 01:17:09;;;;;;;0.40;0.40;;;10.00;86.80;;;;;;4243857;28;20039;-65
2024/04/25 01:19:10;;;;;;;1.33;0.45;;;10.00;87.30;;;;;;4228482;28;20126;-65
2024/04/25 01:21:12;;;;;;;1.35;0.93;;;10.00;86.90;;;;;;4229448;28;20396;-65
2024/04/25 01:23:15;;;;;;;2.45;0.40;;;9.90;86.60;;;;;;4239311;28;20118;-67
2024/04/25 01:25:18;;;;;;;1.05;0.70;;;10.00;86.80;;;;;;4231436;28;20101;-65
2024/04/25 01:27:19;;;;;;;1.27;0.68;;;10.00;86.80;;;;;;4230565;28;20027;-65
2024/04/25 01:29:21;;;;;;;0.57;0.52;;;10.00;87.20;;;;;;4240524;28;20551;-62
2024/04/25 01:31:22;;;;;;;1.58;0.60;;;10.00;87.30;;;;;;4233330;28;20096;-68
2024/04/25 01:33:26;;;;;;;1.77;0.30;;;10.00;87.60;;;;;;4220518;28;20056;-63
2024/04/25 01:35:31;;;;;;;2.03;0.95;;;10.00;87.90;;;;;;4241938;28;20043;-64
2024/04/25 01:37:34;;;;;;;1.67;0.88;;;10.00;87.80;;;;;;4244605;28;20040;-63
2024/04/25 01:39:35;;;;;;;2.45;1.85;;;10.10;87.50;;;;;;4234686;28;20108;-65
2024/04/25 01:41:38;;;;;;;0.65;0.50;;;10.10;86.60;;;;;;4227080;28;20460;-62
2024/04/25 01:43:39;;;;;;;1.10;0.25;;;10.10;86.70;;;;;;4231863;28;20170;-64
2024/04/25 01:45:40;;;;;;;4.07;0.80;;;10.10;87.20;;;;;;4233816;28;20044;-66
2024/04/25 01:47:42;;;;;;;0.77;0.40;;;10.00;88.10;;;;;;4230289;28;20088;-65
2024/04/25 01:49:43;;;;;;;1.17;0.77;;;9.90;88.50;;;;;;4240251;28;20047;-65
2024/04/25 01:51:44;;;;;;;1.15;0.98;;;9.90;88.50;;;;;;4229170;28;20059;-66
2024/04/25 01:53:45;;;;;;;1.20;0.73;;;9.90;88.80;;;;;;4234613;28;20039;-64
2024/04/25 01:55:46;;;;;;;2.28;1.25;;;10.00;87.90;;;;;;4235840;28;20043;-69
2024/04/25 01:57:49;;;;;;;0.88;0.50;;;9.90;88.70;;;;;;4229409;28;20062;-62
2024/04/25 01:59:50;;;;;;;4.13;1.35;;;9.90;88.40;;;;;;4235553;27;20475;-71
2024/04/25 02:01:51;;;;;;;2.33;0.45;;;9.90;88.50;;;;;;4248886;27;20042;-64
2024/04/25 02:03:52;;;;;;;0.50;0.30;;;10.00;88.30;;;;;;4245169;27;20400;-70
2024/04/25 02:05:53;;;;;;;0.50;0.50;;;9.90;87.60;;;;;;4223717;28;20044;-65
2024/04/25 02:07:54;;;;;;;0.70;0.60;;;9.90;87.30;;;;;;4237756;27;20055;-62
2024/04/25 02:09:55;;;;;;;2.15;1.27;;;9.80;87.60;;;;;;4236711;27;20040;-65
2024/04/25 02:11:56;;;;;;;2.80;0.65;;;9.80;88.00;;;;;;4247983;27;20047;-64
2024/04/25 02:13:59;;;;;;;1.27;0.32;;;9.80;87.80;;;;;;4246900;27;20061;-63
2024/04/25 02:16:00;;;;;;;0.73;0.73;;;9.90;87.50;;;;;;4238686;27;20043;-65
2024/04/25 02:18:01;;;;;;;2.20;0.82;;;9.90;87.80;;;;;;4248669;27;20488;-64
2024/04/25 02:25:13;;;;;;;0.82;0.50;;;9.90;88.20;;;;;;4243788;27;20043;-65
2024/04/25 02:27:23;;;;;;;0.80;0.50;;;9.80;87.90;;;;;;4149868;28;20054;-65
2024/04/25 02:29:25;;;;;;;2.08;0.35;;;9.80;87.30;;;;;;4149822;28;20140;-63
2024/04/25 02:31:31;;;;;;;0.45;0.40;;;9.80;87.60;;;;;;4131940;28;20047;-63
2024/04/25 02:33:32;;;;;;;1.38;0.45;;;9.90;87.70;;;;;;4131558;28;20105;-63
2024/04/25 02:35:33;;;;;;;3.10;0.75;;;9.80;87.50;;;;;;4153923;28;20054;-64
2024/04/25 02:37:34;;;;;;;1.15;0.65;;;9.70;87.60;;;;;;4151404;28;20469;-65
2024/04/25 02:39:36;;;;;;;4.05;1.20;;;9.80;88.10;;;;;;4149308;28;20038;-65
2024/04/25 02:41:37;;;;;;;1.30;0.47;;;9.80;87.90;;;;;;4157825;28;20140;-63
2024/04/25 02:43:38;;;;;;;0.45;0.43;;;9.80;87.50;;;;;;4150595;28;20061;-63
2024/04/25 02:45:41;;;;;;;0.63;0.45;;;9.80;88.00;;;;;;4154512;28;20046;-64
2024/04/25 02:47:42;;;;;;;0.20;0.20;;;9.80;88.10;;;;;;4152471;28;20050;-63
2024/04/25 02:49:43;;;;;;;1.15;0.63;;;9.80;88.10;;;;;;4149015;28;20046;-65
2024/04/25 02:51:44;;;;;;;3.50;1.48;;;9.80;87.80;;;;;;4158582;28;20064;-65
2024/04/25 02:53:45;;;;;;;0.55;0.45;;;9.70;88.20;;;;;;4164448;28;20101;-66
2024/04/25 02:55:46;;;;;;;1.27;0.40;;;9.60;88.40;;;;;;4152741;28;20089;-65
2024/04/25 02:57:47;;;;;;;1.25;0.47;;;9.50;88.70;;;;;;4168874;28;20048;-64
2024/04/25 02:59:48;;;;;;;1.20;0.32;;;9.40;88.80;;;;;;4214340;28;20051;-62
2024/04/25 03:01:51;;;;;;;1.35;0.75;;;9.40;89.30;;;;;;4226005;28;20485;-65
2024/04/25 03:03:52;;;;;;;2.90;0.90;;;9.40;89.40;;;;;;4214392;28;20109;-64
2024/04/25 03:05:53;;;;;;;1.20;0.47;;;9.50;89.70;;;;;;4234925;27;20047;-65
2024/04/25 03:07:54;;;;;;;3.22;1.10;;;9.40;89.70;;;;;;4244535;27;20044;-64
2024/04/25 03:09:55;;;;;;;1.75;1.02;;;9.40;90.00;;;;;;4241321;27;20153;-64
2024/04/25 03:11:57;;;;;;;0.28;0.28;;;9.30;89.90;;;;;;4241741;27;20430;-65
2024/04/25 03:13:59;;;;;;;0.85;0.63;;;9.30;90.40;;;;;;4232393;27;20070;-65
2024/04/25 03:16:01;;;;;;;0.45;0.28;;;9.30;90.60;;;;;;4231999;27;20046;-65
2024/04/25 03:18:04;;;;;;;1.75;1.20;;;9.30;90.50;;;;;;4242206;27;20040;-65
2024/04/25 03:20:06;;;;;;;0.73;0.40;;;9.30;90.30;;;;;;4216679;28;20048;-65
2024/04/25 03:22:07;;;;;;;0.63;0.32;;;9.20;90.40;;;;;;4237225;27;20050;-65
2024/04/25 03:24:09;;;;;;;0.82;0.20;;;9.20;90.50;;;;;;4233949;27;20048;-65
2024/04/25 03:26:10;;;;;;;2.25;0.20;;;9.20;90.40;;;;;;4232185;27;20047;-66
2024/04/25 03:28:11;;;;;;;0.57;0.57;;;9.20;90.20;;;;;;4242148;27;20496;-65
2024/04/25 03:30:12;;;;;;;2.38;0.43;;;9.20;90.60;;;;;;4230379;28;20051;-65
2024/04/25 03:32:13;;;;;;;0.30;0.30;;;9.10;90.30;;;;;;4237883;27;20042;-65
2024/04/25 03:34:15;;;;;;;1.33;0.80;;;9.10;90.60;;;;;;4235680;27;20047;-65
2024/04/25 03:36:16;;;;;;;1.55;1.25;;;9.20;90.40;;;;;;4231235;28;20148;-65
2024/04/25 03:38:17;;;;;;;0.88;0.43;;;9.30;90.30;;;;;;4235910;27;20039;-65
2024/04/25 03:40:19;;;;;;;0.73;0.63;;;9.20;90.10;;;;;;4247765;27;20047;-62
2024/04/25 03:42:22;;;;;;;1.33;0.65;;;9.20;90.30;;;;;;4224822;27;20441;-63
2024/04/25 03:44:24;;;;;;;2.05;0.63;;;9.30;90.30;;;;;;4233787;27;20051;-65
2024/04/25 03:46:25;;;;;;;1.00;0.68;;;9.20;90.10;;;;;;4247094;27;20054;-64
2024/04/25 03:48:26;;;;;;;0.82;0.68;;;9.10;90.40;;;;;;4245753;27;20039;-65
2024/04/25 03:50:29;;;;;;;3.20;0.80;;;9.10;90.40;;;;;;4230297;28;20068;-64
2024/04/25 03:52:30;;;;;;;0.57;0.35;;;9.00;90.70;;;;;;4234490;27;20046;-65
2024/04/25 03:54:31;;;;;;;1.10;0.40;;;9.00;90.90;;;;;;4238693;27;20055;-65
2024/04/25 03:56:32;;;;;;;0.85;0.82;;;8.90;90.40;;;;;;4247319;27;20043;-62
2024/04/25 03:58:34;;;;;;;0.93;0.52;;;9.00;90.60;;;;;;4235468;27;20448;-63
2024/04/25 04:00:35;;;;;;;2.30;0.57;;;9.10;90.60;;;;;;4245888;27;20043;-65
2024/04/25 04:02:36;;;;;;;22.83;2.35;;;8.90;90.30;;;;;;4244750;27;20039;-64
2024/04/25 04:04:37;;;;;;;0.75;0.70;;;9.00;90.60;;;;;;4236465;27;20116;-62
2024/04/25 04:06:40;;;;;;;0.25;0.25;;;8.90;90.30;;;;;;4246367;27;20432;-62
2024/04/25 04:08:41;;;;;;;1.05;0.50;;;8.90;90.40;;;;;;4222852;28;20043;-64
2024/04/25 04:10:43;;;;;;;0.60;0.50;;;9.00;90.30;;;;;;4202961;28;20048;-64
2024/04/25 04:12:45;;;;;;;0.63;0.40;;;8.90;90.50;;;;;;4217096;28;20512;-64
2024/04/25 04:14:46;;;;;;;0.65;0.50;;;8.90;90.40;;;;;;4229316;28;20039;-64
2024/04/25 04:16:47;;;;;;;2.72;0.73;;;8.90;90.50;;;;;;4230117;28;20105;-62
2024/04/25 04:18:48;;;;;;;1.13;1.10;;;8.90;90.70;;;;;;4229582;28;20051;-64
2024/04/25 04:20:51;;;;;;;2.25;0.73;;;8.90;90.30;;;;;;4213046;28;20067;-64
2024/04/25 04:22:54;;;;;;;0.80;0.60;;;8.90;90.90;;;;;;4228943;28;20039;-67
2024/04/25 04:24:55;;;;;;;1.40;1.05;;;8.90;90.70;;;;;;4213087;28;20040;-65
2024/04/25 04:26:56;;;;;;;2.92;0.50;;;8.90;90.70;;;;;;4229776;28;20040;-64
2024/04/25 04:28:58;;;;;;;0.90;0.82;;;8.90;90.70;;;;;;4229323;28;20485;-64
2024/04/25 04:30:59;;;;;;;0.75;0.50;;;8.90;90.40;;;;;;4229809;28;20381;-67
2024/04/25 04:33:00;;;;;;;2.60;0.30;;;8.90;90.20;;;;;;4229288;28;20039;-69
2024/04/25 04:35:01;;;;;;;1.30;0.30;;;8.90;90.30;;;;;;4229704;28;20047;-64
2024/04/25 04:37:02;;;;;;;0.75;0.68;;;8.80;90.30;;;;;;4212684;28;20477;-65
2024/04/25 04:39:06;;;;;;;1.25;0.93;;;8.80;90.30;;;;;;4229346;28;20458;-65
2024/04/25 04:41:07;;;;;;;0.65;0.57;;;8.80;90.50;;;;;;4229268;28;20047;-65
2024/04/25 04:43:08;;;;;;;0.30;0.30;;;8.80;90.30;;;;;;4212281;28;20496;-64
2024/04/25 04:45:10;;;;;;;0.57;0.35;;;8.80;90.40;;;;;;4229162;28;20047;-64
2024/04/25 04:47:11;;;;;;;0.55;0.35;;;8.90;90.40;;;;;;4229281;28;20092;-64
2024/04/25 04:49:12;;;;;;;1.48;0.60;;;8.90;90.50;;;;;;4229325;28;20047;-64
2024/04/25 04:51:13;;;;;;;2.00;1.20;;;8.80;90.60;;;;;;4229394;28;20043;-64
2024/04/25 04:53:14;;;;;;;1.45;1.17;;;8.80;90.60;;;;;;4229381;28;20100;-64
2024/04/25 04:55:17;;;;;;;0.65;0.50;;;8.70;90.50;;;;;;4229171;28;20039;-64
2024/04/25 04:57:19;;;;;;;2.05;0.57;;;8.80;90.90;;;;;;4229247;28;20469;-63
2024/04/25 04:59:20;;;;;;;0.63;0.47;;;8.80;90.80;;;;;;4229436;28;20043;-62
2024/04/25 05:01:21;;;;;;;0.50;0.40;;;8.70;90.60;;;;;;4229322;28;20085;-65
2024/04/25 05:03:22;;;;;;;1.08;0.45;;;8.70;90.70;;;;;;4229049;28;20052;-63
2024/04/25 05:05:23;;;;;;;1.98;0.65;;;8.70;90.40;;;;;;4229203;28;20526;-64
2024/04/25 05:07:24;;;;;;;1.13;0.50;;;8.70;90.70;;;;;;4212424;28;20048;-64
2024/04/25 05:09:25;;;;;;;0.75;0.40;;;8.80;90.60;;;;;;4229066;28;20480;-65
2024/04/25 05:11:29;;;;;;;0.77;0.32;;;8.80;90.40;;;;;;4228824;28;20039;-64
2024/04/25 05:13:31;;;;;;;1.17;0.40;;;8.80;90.60;;;;;;4228850;28;20058;-64
2024/04/25 05:15:32;;;;;;;0.75;0.50;;;8.70;90.40;;;;;;4228978;28;20463;-64
2024/04/25 05:17:33;;;;;;;1.50;0.57;;;8.70;90.70;;;;;;4229104;28;20401;-65
2024/04/25 05:19:34;;;;;;;2.08;0.60;;;8.80;90.80;;;;;;4229050;28;20056;-64
2024/04/25 05:21:35;;;;;;;0.80;0.50;;;8.80;90.50;;;;;;4229063;28;20120;-64
2024/04/25 05:23:37;;;;;;;0.88;0.65;;;8.90;90.50;;;;;;4229871;28;20055;-64
2024/04/25 05:25:38;;;;;;;1.58;1.02;;;8.90;90.20;;;;;;4228869;28;20108;-63
2024/04/25 05:27:40;;;;;;;2.25;0.65;;;8.90;90.30;;;;;;4229071;28;20132;-63
2024/04/25 05:29:42;;;;;;;1.70;0.50;;;8.90;90.70;;;;;;4212231;28;20048;-63
2024/04/25 05:31:43;;;;;;;1.55;0.60;;;9.00;91.10;;;;;;4228747;28;20048;-64
2024/04/25 05:33:47;;;;;;;1.02;0.63;;;9.00;90.90;;;;;;4229229;28;20048;-64
2024/04/25 05:35:50;;;;;;;0.70;0.40;;;9.10;90.90;;;;;;4232707;28;20044;-64
2024/04/25 05:37:51;;;;;;;8.35;0.88;;;9.10;90.70;;;;;;4232550;28;20121;-65
2024/04/25 05:39:53;;;;;;;2.45;1.55;;;9.10;90.80;;;;;;4232637;28;20373;-64
2024/04/25 05:41:54;;;;;;;1.05;0.35;;;9.10;90.30;;;;;;4228942;28;20191;-65
2024/04/25 05:43:56;;;;;;;0.63;0.40;;;9.20;90.40;;;;;;4230973;28;20454;-65
2024/04/25 05:45:58;;;;;;;1.17;0.98;;;9.30;90.20;;;;;;4215492;28;20417;-65
2024/04/25 05:48:00;;;;;;;1.27;0.30;;;9.40;90.30;;;;;;4221078;28;20100;-66
2024/04/25 05:50:01;;;;;;;1.38;1.20;;;9.50;90.40;;;;;;4232584;28;20544;-65
2024/04/25 05:52:02;;;;;;;0.90;0.70;;;9.50;90.10;;;;;;4232266;28;20070;-68
2024/04/25 05:54:03;;;;;;;2.25;1.08;;;9.60;89.70;;;;;;4232256;28;20051;-65
2024/04/25 05:56:05;;;;;;;0.93;0.70;;;9.50;89.70;;;;;;4231635;28;20043;-64
2024/04/25 05:58:06;;;;;;;0.57;0.50;;;9.60;90.30;;;;;;4232063;28;20055;-64
2024/04/25 06:00:09;;;;;;;1.13;0.70;;;9.60;90.40;;;;;;4232538;28;20047;-64
2024/04/25 06:02:10;;;;;;;2.50;1.52;;;9.60;90.10;;;;;;4232176;28;20098;-64
2024/04/25 06:04:12;;;;;;;3.13;1.30;;;9.70;90.40;;;;;;4232690;28;20105;-64
2024/04/25 06:06:13;;;;;;;1.38;0.80;;;9.80;90.40;;;;;;4232397;28;20076;-64
2024/04/25 06:08:14;;;;;;;10.25;1.90;;;9.80;90.50;;;;;;4229420;28;20055;-68
2024/04/25 06:10:15;;;;;;;2.60;0.70;;;9.90;90.40;;;;;;4232441;28;20044;-65
2024/04/25 06:12:16;;;;;;;1.77;0.77;;;10.10;89.60;;;;;;4235211;27;20134;-63
2024/04/25 06:14:20;;;;;;;1.10;1.00;;;10.10;89.40;;;;;;4223174;28;20121;-68
2024/04/25 06:16:23;;;;;;;2.85;0.90;;;10.10;89.00;;;;;;4215370;28;20082;-63
2024/04/25 06:18:24;;;;;;;1.55;0.60;;;10.10;89.10;;;;;;4244454;27;20039;-64
2024/04/25 06:20:25;;;;;;;1.15;0.38;;;10.10;88.70;;;;;;4249522;27;20068;-64
2024/04/25 06:22:26;;;;;;;1.25;0.57;;;10.10;87.70;;;;;;4244964;27;20047;-64
2024/04/25 06:24:27;;;;;;;3.33;1.23;;;10.20;87.60;;;;;;4239274;27;20074;-64
2024/04/25 06:26:28;;;;;;;1.17;1.08;;;10.30;86.70;;;;;;4248658;27;20047;-64
2024/04/25 06:28:29;;;;;;;3.33;0.70;;;10.40;86.00;;;;;;4237400;27;20477;-65
2024/04/25 06:30:30;;;;;;;1.00;0.82;;;10.40;86.00;;;;;;4246897;27;20047;-64
2024/04/25 06:32:33;;;;;;;0.90;0.40;;;10.50;85.20;;;;;;4235711;27;20043;-63
2024/04/25 06:34:34;;;;;;;0.30;0.30;;;10.50;85.10;;;;;;4226102;27;20426;-63
2024/04/25 06:36:35;;;;;;;0.28;0.28;;;10.50;84.80;;;;;;4248564;27;20039;-63
2024/04/25 06:38:36;;;;;;;1.73;0.85;;;10.50;84.50;;;;;;4239230;27;20040;-63
2024/04/25 06:40:37;;;;;;;0.63;0.32;;;10.50;83.90;;;;;;4238717;27;20043;-62
2024/04/25 06:42:38;;;;;;;0.65;0.30;;;10.60;84.20;;;;;;4219377;27;20039;-63
2024/04/25 06:44:40;;;;;;;2.35;0.45;;;10.50;85.10;;;;;;4246006;27;20396;-64
2024/04/25 06:46:41;;;;;;;1.05;0.70;;;10.40;85.60;;;;;;4248695;27;20043;-66
2024/04/25 06:48:44;;;;;;;2.20;0.52;;;10.30;85.70;;;;;;4241505;27;20381;-64
2024/04/25 06:50:46;;;;;;;2.72;0.80;;;10.30;84.80;;;;;;4242945;27;20050;-64
2024/04/25 06:52:47;;;;;;;1.15;1.00;;;10.30;84.50;;;;;;4246302;27;20580;-65
2024/04/25 06:54:48;;;;;;;2.50;0.40;;;10.20;85.40;;;;;;4236884;27;20467;-64
2024/04/25 06:56:49;;;;;;;3.80;0.73;;;10.20;85.60;;;;;;4248721;27;20043;-65
2024/04/25 06:58:51;;;;;;;1.27;0.38;;;10.00;85.20;;;;;;4243025;27;20091;-65
2024/04/25 07:00:52;;;;;;;1.38;0.40;;;10.00;86.00;;;;;;4241038;27;20050;-66
2024/04/25 07:02:53;;;;;;;8.60;0.88;;;10.00;86.40;;;;;;4248715;27;20107;-64
2024/04/25 07:04:56;;;;;;;4.13;0.95;;;10.00;85.80;;;;;;4235644;27;20105;-64
2024/04/25 07:06:57;;;;;;;1.63;0.55;;;10.00;87.30;;;;;;4228491;28;20044;-64
2024/04/25 07:08:59;;;;;;;1.95;1.27;;;10.00;87.60;;;;;;4225872;27;20152;-64
2024/04/25 07:11:01;;;;;;;0.77;0.50;;;10.00;87.70;;;;;;4215065;28;20044;-64
2024/04/25 07:13:03;;;;;;;1.25;1.15;;;10.00;87.20;;;;;;4213998;28;20058;-64
2024/04/25 07:15:06;;;;;;;0.70;0.70;;;10.00;86.60;;;;;;4229641;28;20047;-64
2024/04/25 07:17:07;;;;;;;1.20;0.80;;;10.00;88.00;;;;;;4231206;28;20104;-65
2024/04/25 07:19:09;;;;;;;0.82;0.45;;;10.00;88.20;;;;;;4231209;28;20036;-67
2024/04/25 07:21:11;;;;;;;2.63;1.65;;;10.00;87.50;;;;;;4214294;28;20040;-65
2024/04/25 07:23:12;;;;;;;0.55;0.45;;;10.20;86.70;;;;;;4231076;28;20056;-66
2024/04/25 07:25:14;;;;;;;0.75;0.35;;;10.20;85.90;;;;;;4231025;28;20432;-65
2024/04/25 07:27:15;;;;;;;3.28;0.82;;;10.40;84.50;;;;;;4214659;28;20040;-64
2024/04/25 07:29:16;;;;;;;0.50;0.30;;;10.50;83.90;;;;;;4231071;28;20046;-67
2024/04/25 07:31:17;;;;;;;3.08;1.42;;;10.60;83.80;;;;;;4230890;28;20046;-64
2024/04/25 07:33:18;;;;;;;0.75;0.70;;;10.80;83.70;;;;;;4231003;28;20044;-65
2024/04/25 07:35:19;;;;;;;1.30;0.63;;;10.90;82.40;;;;;;4230599;28;20047;-64
2024/04/25 07:37:24;;;;;;;0.75;0.40;;;11.10;81.60;;;;;;4230324;28;20432;-65
2024/04/25 07:39:25;;;;;;;1.27;1.17;;;11.10;81.10;;;;;;4230318;28;20177;-67
2024/04/25 07:41:28;;;;;;;3.60;0.98;;;11.40;81.60;;;;;;4230196;28;20047;-66
2024/04/25 07:43:29;;;;;;;0.43;0.35;;;11.70;80.40;;;;;;4217790;28;20051;-64
2024/04/25 07:45:30;;;;;;;1.27;0.80;;;12.00;80.70;;;;;;4224285;28;20051;-65
2024/04/25 07:47:32;;;;;;;1.00;0.85;;;11.90;76.40;;;;;;4230693;28;20063;-62
2024/04/25 07:49:33;;;;;;;0.68;0.47;;;12.00;77.00;;;;;;4230394;28;20048;-62
2024/04/25 07:51:35;;;;;;;1.25;1.00;;;12.10;78.20;;;;;;4229971;28;20052;-61
2024/04/25 07:53:37;;;;;;;0.57;0.22;;;12.20;77.70;;;;;;4230328;28;20164;-61
2024/04/25 07:55:40;;;;;;;1.45;0.40;;;12.20;78.60;;;;;;4230112;28;20051;-62
2024/04/25 07:57:41;;;;;;;0.68;0.40;;;12.40;78.30;;;;;;4229899;28;20046;-64
2024/04/25 07:59:44;;;;;;;1.33;0.45;;;12.40;74.40;;;;;;4230619;28;20043;-62
2024/04/25 08:01:45;;;;;;;1.27;0.52;;;12.40;73.80;;;;;;4230126;28;20104;-63
2024/04/25 08:03:46;;;;;;;0.77;0.63;;;12.30;74.20;;;;;;4230146;28;20160;-62
2024/04/25 08:05:47;;;;;;;1.80;0.70;;;12.40;75.70;;;;;;4229662;28;20043;-62
2024/04/25 08:07:49;;;;;;;1.77;0.85;;;12.60;77.10;;;;;;4230064;28;20558;-63
2024/04/25 08:09:53;;;;;;;0.32;0.32;;;12.70;75.40;;;;;;4230072;28;20035;-63
2024/04/25 08:11:55;;;;;;;0.95;0.50;;;12.70;74.60;;;;;;4229875;28;20055;-64
2024/04/25 08:13:56;;;;;;;0.57;0.30;;;12.80;74.80;;;;;;4229460;28;20055;-64
2024/04/25 08:15:57;;;;;;;4.20;1.30;;;12.70;74.60;;;;;;4245338;27;20035;-63
2024/04/25 08:17:58;;;;;;;0.25;0.20;;;12.80;72.90;;;;;;4235555;27;20100;-64
2024/04/25 08:20:01;;;;;;;0.52;0.30;;;12.80;70.90;;;;;;4232730;27;20047;-63
2024/04/25 08:22:03;;;;;;;3.05;0.70;;;12.80;71.40;;;;;;4238852;27;20496;-64
2024/04/25 08:24:05;;;;;;;0.65;0.22;;;12.70;71.40;;;;;;4233289;27;20050;-64
2024/04/25 08:26:07;;;;;;;2.08;0.57;;;12.60;70.80;;;;;;4231159;27;20051;-63
2024/04/25 08:28:08;;;;;;;0.60;0.47;;;12.50;69.80;;;;;;4241134;27;20039;-64
2024/04/25 08:30:10;;;;;;;0.20;0.10;;;12.50;73.30;;;;;;4229918;28;20054;-66
2024/04/25 08:32:11;;;;;;;1.17;0.20;;;12.60;72.40;;;;;;4236927;27;20070;-64
2024/04/25 08:34:13;;;;;;;1.20;0.68;;;12.80;73.10;;;;;;4234995;27;20164;-64
2024/04/25 08:36:14;;;;;;;1.42;0.30;;;13.00;71.70;;;;;;4230648;27;20495;-65
2024/04/25 08:38:15;;;;;;;7.78;0.50;;;13.10;70.20;;;;;;4235746;27;20043;-64
2024/04/25 08:40:17;;;;;;;0.47;0.32;;;13.30;71.50;;;;;;4246982;27;20047;-64
2024/04/25 08:42:19;;;;;;;1.17;0.30;;;13.50;70.00;;;;;;4225216;27;20048;-64
2024/04/25 08:44:21;;;;;;;1.38;1.27;;;13.50;69.40;;;;;;4232536;27;20449;-68
2024/04/25 08:46:26;;;;;;;3.17;0.90;;;13.40;70.60;;;;;;4229542;28;20059;-64
2024/04/25 08:48:30;;;;;;;0.82;0.30;;;13.40;68.10;;;;;;4233793;27;20043;-63
2024/04/25 08:50:33;;;;;;;2.42;0.93;;;13.30;69.40;;;;;;4246142;27;20134;-63
2024/04/25 08:52:37;;;;;;;0.20;0.20;;;13.20;68.20;;;;;;4241358;27;20047;-64
2024/04/25 08:54:39;;;;;;;0.53;0.40;;;13.10;68.00;;;;;;4238885;27;20047;-64
2024/04/25 08:56:40;;;;;;;0.13;0.13;;;13.00;69.20;;;;;;4246573;27;20440;-64
2024/04/25 08:58:44;;;;;;;0.20;0.20;;;13.00;70.10;;;;;;4233676;27;20046;-64
2024/04/25 09:00:45;;;;;;;0.50;0.40;;;12.90;67.40;;;;;;4212725;28;20534;-64
2024/04/25 09:02:50;;;;;;;0.50;0.30;;;13.00;68.50;;;;;;4223627;28;20051;-65
2024/04/25 09:04:54;;;;;;;;;;;13.00;67.10;;;;;;4238503;27;20557;-63
2024/04/25 09:06:56;;;;;;;0.40;0.40;;;13.00;65.80;;;;;;4208808;28;20402;-66
2024/04/25 09:08:57;;;;;;;3.97;0.75;;;13.20;67.30;;;;;;4225970;27;20031;-68
2024/04/25 09:11:00;;;;;;;0.50;0.30;;;13.40;69.90;;;;;;4215786;28;20051;-67
2024/04/25 09:13:01;;;;;;;11.27;3.63;;;13.30;67.80;;;;;;4225299;28;20413;-64
2024/04/25 09:15:05;;;;;;;3.75;1.63;;;13.20;67.60;;;;;;4228709;28;20056;-66
2024/04/25 09:17:12;;;;;;;1.65;0.73;;;13.30;68.20;;;;;;4216896;28;20464;-63
2024/04/25 09:19:13;;;;;;;2.15;0.98;;;13.20;66.90;;;;;;4224549;28;20093;-69
2024/04/25 09:21:15;;;;;;;18.45;7.07;;;13.00;65.30;;;;;;4221971;28;20040;-65
2024/04/25 09:23:16;;;;;;;8.98;4.68;;;13.00;66.00;;;;;;4227577;28;20446;-63
2024/04/25 09:25:17;;;;;;;7.30;2.83;;;13.10;66.60;;;;;;4220535;28;20047;-65
2024/04/25 09:27:19;;;;;;;13.70;3.05;;;13.00;68.10;;;;;;4228042;28;20039;-65
2024/04/25 09:29:20;;;;;;;19.42;6.35;;;13.00;69.20;;;;;;4223245;28;20594;-66
2024/04/25 09:31:23;;;;;;;8.30;2.45;;;13.00;68.70;;;;;;4228154;28;20044;-66
2024/04/25 09:33:24;;;;;;;6.20;1.35;;;13.00;68.60;;;;;;4210559;28;20094;-65
2024/04/25 09:35:25;;;;;;;2.28;0.95;;;13.00;68.70;;;;;;4228234;28;20043;-67
2024/04/25 09:37:27;;;;;;;3.13;1.40;;;13.00;67.00;;;;;;4222378;28;20055;-64
2024/04/25 09:39:28;;;;;;;4.00;0.90;;;13.10;69.00;;;;;;4228718;28;20084;-72
2024/04/25 09:41:30;;;;;;;0.40;0.25;;;13.20;66.80;;;;;;4219820;28;20106;-63
2024/04/25 09:43:31;;;;;;;1.67;1.08;;;13.00;66.70;;;;;;4207050;28;20617;-67
2024/04/25 09:45:35;;;;;;;3.72;1.58;;;13.10;67.30;;;;;;4227956;28;20131;-66
2024/04/25 09:47:45;;;;;;;25.35;13.60;;;13.10;67.60;;;;;;4228215;28;20043;-66
2024/04/25 09:49:50;;;;;;;8.80;4.28;;;13.20;68.50;;;;;;4225988;28;20448;-67
2024/04/25 09:52:00;;;;;;;21.40;10.60;;;13.20;69.20;;;;;;4226851;28;20092;-67
2024/04/25 09:54:08;;;;;;;19.55;8.63;;;13.20;67.80;;;;;;4227982;28;20085;-66
2024/04/25 09:56:12;;;;;;;8.38;4.85;;;13.30;67.90;;;;;;4227865;28;20073;-66
2024/04/25 09:58:30;;;;;;;6.63;4.30;;;13.50;66.70;;;;;;4178641;28;20053;-67
2024/04/25 10:00:33;;;;;;;20.42;5.63;;;13.50;67.90;;;;;;4228113;28;20044;-66
2024/04/25 10:02:35;;;;;;;25.08;9.45;;;13.50;66.90;;;;;;4228267;28;20133;-67
2024/04/25 10:04:37;;;;;;;11.20;4.45;;;13.40;66.10;;;;;;4227549;28;20639;-70
2024/04/25 10:06:39;;;;;;;52.90;21.95;;;13.20;68.20;;;;;;4224476;28;20035;-66
2024/04/25 10:08:41;;;;;;;11.07;4.18;;;13.20;66.40;;;;;;4210839;28;20069;-65
2024/04/25 10:10:43;;;;;;;5.68;1.98;;;13.00;68.00;;;;;;4226361;28;20120;-67
2024/04/25 10:12:50;;;;;;;22.70;9.43;;;12.80;68.50;;;;;;4225367;28;20078;-66
2024/04/25 10:14:55;;;;;;;13.52;6.32;;;12.90;67.20;;;;;;4226714;28;20079;-68
2024/04/25 10:16:57;;;;;;;39.85;21.23;;;12.90;67.90;;;;;;4227309;28;20040;-70
2024/04/25 10:18:59;;;;;;;28.35;12.77;;;13.10;69.00;;;;;;4225015;28;20048;-65
2024/04/25 10:21:03;;;;;;;15.90;9.55;;;13.20;65.90;;;;;;4227677;28;20135;-67
2024/04/25 10:23:06;;;;;;;53.30;20.08;;;13.40;67.60;;;;;;4231018;28;20093;-64
2024/04/25 10:25:18;;;;;;;14.88;5.97;;;13.70;67.40;;;;;;4228615;28;20047;-64
2024/04/25 10:27:19;;;;;;;8.65;5.68;;;13.60;67.80;;;;;;4223283;28;20397;-64
2024/04/25 10:29:32;;;;;;;4.45;1.27;;;13.70;67.70;;;;;;4211547;28;20048;-67
2024/04/25 10:31:34;;;;;;;6.22;1.35;;;13.70;66.00;;;;;;4228673;28;20051;-65
2024/04/25 10:33:35;;;;;;;1.05;0.40;;;13.70;66.80;;;;;;4212054;28;20070;-65
2024/04/25 10:35:37;;;;;;;3.38;0.85;;;13.80;66.40;;;;;;4229620;28;20046;-68
2024/04/25 10:37:40;;;;;;;26.00;7.38;;;13.80;68.20;;;;;;4209668;28;20050;-64
2024/04/25 10:39:42;;;;;;;2.95;1.20;;;13.90;66.80;;;;;;4228070;28;20481;-66
2024/04/25 10:41:44;;;;;;;5.93;3.03;;;13.90;67.80;;;;;;4227973;28;20434;-66